Airfield :
LOGIN :

Register | Disclaimer

   EN    FR    IT 

 










Legend :    VFR   Marginal VFR   IFR   Intensive IFR   Very Intensive IFR
Visi :
Ceiling :
>= 8 km
>= 3000ft
5 to 8 km
1000 to 3000 ft
1500m to 5 km
500 to 1000 ft
800 to 1500m
200 to 500 ft
< 800m
< 200 ft
Symbols :   Thunderstorms  Fog  Heavy snow  Heavy precipitations  Wind > 20 kt
SIGMETs :     Misc.  Thunderstorms  Icing  Turbulence  Mountain Waves  Volcanic Ashes







- Airport Elevation : 20 ft


EBFN - Koksijde

CURRENT METAR :
  • 190755Z 25008KT 9999 FEW010 BKN022 17/15 Q1024 WHT WHT

EXPIRED METARs :
  • 190725Z 25008KT 9999 FEW010 BKN023 17/15 Q1024 WHT WHT
  • 190723Z 25009KT 9999 FEW010 BKN023 17/15 Q1024 WHT WHT
  • 190655Z 24009KT 9999 FEW010 BKN024 17/14 Q1024 WHT WHT TEMPO BLU
  • 190638Z 24008KT 9999 FEW010 BKN024 17/14 Q1023 WHT WHT TEMPO BLU
  • 190625Z 24009KT 9999 FEW010 BKN026 17/14 Q1023 BLU BLU TEMPO WHT
  • 190555Z 24008KT 9999 FEW010 BKN025 17/14 Q1023 BLU BLU TEMPO WHT
  • 190525Z 23009KT 8000 FEW010 BKN025 16/14 Q1023 BLU BLU TEMPO WHT

TAF TAF EBFN
Valid from the 19 at 07:00 until the 19 at 16:00 UTC


190541Z 1907/1916 25010KT 9999 BKN020
TEMPO 1907/1916 BKN025
PROB30
TEMPO 1907/1910 SCT012
No reported NOTAMs for that airfield.



MET'MAP, your aeronautical weather chart ! - Copyright ORBIFLY December 2007 - Disclaimer

ORBIFLY MET'MAP TEAM :

Programming & Development : Alexandra Zaïnal
Concept & Development : Baudouin d'Aumeries
Co-Development & Prog : Marc-Olivier Méhu
Technical & hardware support : Manuel Goepfert

Contact : metmap@orbifly.com




SOURCES & CREDITS :

   NOAA